createdAt,value
2023-01-01T00:00:41.508Z,115.95
2023-01-01T00:01:46.208Z,65.13
2023-01-01T00:02:50.735Z,94.45
2023-01-01T00:03:54.221Z,139.25
2023-01-01T00:04:58.778Z,102.80
2023-01-01T00:06:06.046Z,63.58
2023-01-01T00:07:10.543Z,110.90
2023-01-01T00:08:15.089Z,92.43
2023-01-01T00:09:32.105Z,84.75
2023-01-01T00:10:34.270Z,62.50
2023-01-01T00:11:41.426Z,65.68
2023-01-01T00:12:45.964Z,90.35
2023-01-01T00:13:52.854Z,100.20
2023-01-01T00:14:54.818Z,129.20
2023-01-01T00:15:59.452Z,131.70
2023-01-01T00:17:01.939Z,147.10
2023-01-01T00:18:06.813Z,85.07
2023-01-01T00:19:08.894Z,92.28
2023-01-01T00:20:14.494Z,105.30
2023-01-01T00:21:19.058Z,105.38
2023-01-01T00:22:53.400Z,101.38
2023-01-01T00:24:47.303Z,130.70
2023-01-01T00:25:51.783Z,134.32
2023-01-01T00:26:56.353Z,118.80
2023-01-01T00:28:00.904Z,145.68
2023-01-01T00:29:03.923Z,74.82
2023-01-01T00:30:10.059Z,265.00
2023-01-01T00:31:17.271Z,67.07
2023-01-01T00:32:22.944Z,97.53
2023-01-01T00:33:27.777Z,88.47
2023-01-01T00:34:32.413Z,61.75
2023-01-01T00:35:37.519Z,67.88
2023-01-01T00:36:42.086Z,73.82
2023-01-01T00:37:48.138Z,81.22
2023-01-01T00:38:50.458Z,98.13
2023-01-01T00:39:54.967Z,82.10
2023-01-01T00:40:56.961Z,99.15
2023-01-01T00:42:04.056Z,76.97
2023-01-01T00:43:06.054Z,86.57
2023-01-01T00:44:10.598Z,70.97
2023-01-01T00:45:18.739Z,47.55
2023-01-01T00:46:25.848Z,77.82
2023-01-01T00:47:27.793Z,56.58
2023-01-01T00:48:32.362Z,76.20
2023-01-01T00:49:34.402Z,50.58
2023-01-01T00:50:38.937Z,58.42
2023-01-01T00:51:43.609Z,64.18
2023-01-01T00:52:45.573Z,91.65
2023-01-01T00:53:50.189Z,89.50
2023-01-01T00:54:54.747Z,81.65
2023-01-01T00:55:57.011Z,88.13
2023-01-01T00:57:04.209Z,74.55
2023-01-01T00:58:06.159Z,53.92
2023-01-01T00:59:11.047Z,55.63
2023-01-01T01:00:15.266Z,48.47
2023-01-01T01:01:20.235Z,48.80
2023-01-01T01:02:22.557Z,175.15
2023-01-01T01:03:33.602Z,55.72
2023-01-01T01:04:35.586Z,65.53
2023-01-01T01:05:41.606Z,92.15
2023-01-01T01:06:46.281Z,58.05
2023-01-01T01:07:48.388Z,74.63
2023-01-01T01:08:52.973Z,140.88
2023-01-01T01:09:54.877Z,95.15
2023-01-01T01:11:06.699Z,85.80
2023-01-01T01:12:17.755Z,158.20
2023-01-01T01:13:21.345Z,44.70
2023-01-01T01:14:25.895Z,54.78
2023-01-01T01:15:27.795Z,68.63
2023-01-01T01:16:34.715Z,55.88
2023-01-01T01:17:37.029Z,65.18
2023-01-01T01:18:42.038Z,92.50
2023-01-01T01:19:43.967Z,72.25
2023-01-01T01:20:53.510Z,69.78
2023-01-01T01:21:55.444Z,114.57
2023-01-01T01:22:59.948Z,73.25
2023-01-01T01:24:06.096Z,90.88
2023-01-01T01:25:09.022Z,61.63
2023-01-01T01:26:16.353Z,50.22
2023-01-01T01:27:20.966Z,49.13
2023-01-01T01:28:25.470Z,60.30
2023-01-01T01:29:27.443Z,52.42
2023-01-01T01:30:32.104Z,59.30
2023-01-01T01:31:34.967Z,44.60
2023-01-01T01:32:39.599Z,63.70
2023-01-01T01:33:43.810Z,41.95
2023-01-01T01:34:48.702Z,48.65
2023-01-01T01:35:51.866Z,84.32
2023-01-01T01:36:56.354Z,72.07
2023-01-01T01:37:58.293Z,93.82
2023-01-01T01:39:02.781Z,84.15
2023-01-01T01:40:05.981Z,48.42
2023-01-01T01:41:26.119Z,65.38
2023-01-01T01:42:34.265Z,70.32
2023-01-01T01:43:51.114Z,61.22
2023-01-01T01:45:00.335Z,71.63
2023-01-01T01:46:08.874Z,151.85
2023-01-01T01:47:16.212Z,66.00
2023-01-01T01:48:21.056Z,42.03
2023-01-01T01:49:29.247Z,67.63
2023-01-01T01:50:37.197Z,59.05
2023-01-01T01:51:40.902Z,46.28
2023-01-01T01:52:57.910Z,46.75
2023-01-01T01:54:03.479Z,97.38
2023-01-01T01:55:10.822Z,59.08
2023-01-01T01:56:15.881Z,67.85
2023-01-01T01:57:21.308Z,181.30
2023-01-01T01:58:31.172Z,83.13
2023-01-01T01:59:38.528Z,38.53
2023-01-01T02:00:43.069Z,63.78
2023-01-01T02:01:45.238Z,50.28
2023-01-01T02:02:56.324Z,63.10
2023-01-01T02:03:59.789Z,109.72
2023-01-01T02:05:04.969Z,88.32
2023-01-01T02:06:07.101Z,56.33
2023-01-01T02:07:11.862Z,51.67
2023-01-01T02:08:14.737Z,48.72
2023-01-01T02:09:20.205Z,51.53
2023-01-01T02:10:22.682Z,62.53
2023-01-01T02:11:27.300Z,39.40
2023-01-01T02:12:29.505Z,61.97
2023-01-01T02:13:36.658Z,54.22
2023-01-01T02:14:38.612Z,62.40
2023-01-01T02:15:52.403Z,66.28
2023-01-01T02:16:59.732Z,98.50
2023-01-01T02:18:08.456Z,90.78
2023-01-01T02:19:18.451Z,64.32
2023-01-01T02:20:40.292Z,81.05
2023-01-01T02:21:59.528Z,47.30
2023-01-01T02:23:42.742Z,103.20
2023-01-01T02:24:56.834Z,50.60
2023-01-01T02:26:21.082Z,78.18
2023-01-01T02:27:41.025Z,24.27
2023-01-01T02:28:53.196Z,24.00
2023-01-01T02:30:01.591Z,24.15
2023-01-01T02:31:05.260Z,18.95
2023-01-01T02:32:13.194Z,22.67
2023-01-01T02:33:18.472Z,19.83
2023-01-01T02:34:29.232Z,21.75
2023-01-01T02:35:38.764Z,20.10
2023-01-01T02:36:51.256Z,16.92
2023-01-01T02:37:57.316Z,28.42
2023-01-01T02:39:05.034Z,17.88
2023-01-01T02:40:07.853Z,22.00
2023-01-01T02:41:15.794Z,23.80
2023-01-01T02:42:20.882Z,23.00
2023-01-01T02:43:24.995Z,22.50
2023-01-01T02:44:37.307Z,20.08
2023-01-01T02:45:39.312Z,17.98
2023-01-01T02:46:43.948Z,22.45
2023-01-01T02:47:45.902Z,21.23
2023-01-01T02:48:52.418Z,25.13
2023-01-01T02:49:59.546Z,19.85
2023-01-01T02:51:11.350Z,20.08
2023-01-01T02:52:22.203Z,19.60
2023-01-01T02:53:35.070Z,23.08
2023-01-01T02:54:50.917Z,19.83
2023-01-01T02:56:02.143Z,20.33
2023-01-01T02:57:12.507Z,20.83
2023-01-01T02:58:39.262Z,24.10
2023-01-01T03:00:11.348Z,24.85
2023-01-01T03:01:24.137Z,23.50
2023-01-01T03:02:36.890Z,19.83
2023-01-01T03:03:45.023Z,28.83
2023-01-01T03:05:03.677Z,25.48
2023-01-01T03:06:23.742Z,20.85
2023-01-01T03:07:38.937Z,22.42
2023-01-01T03:08:48.534Z,22.95
2023-01-01T03:10:01.895Z,25.83
2023-01-01T03:11:08.294Z,22.15
2023-01-01T03:12:21.390Z,20.58
2023-01-01T03:13:33.184Z,16.17
2023-01-01T03:14:50.495Z,27.92
2023-01-01T03:16:00.016Z,20.52
2023-01-01T03:17:09.535Z,22.60
2023-01-01T03:18:18.883Z,16.88
2023-01-01T03:19:26.561Z,16.70
2023-01-01T03:20:32.711Z,26.65
2023-01-01T03:21:37.441Z,15.60
2023-01-01T03:23:49.957Z,16.73
2023-01-01T03:24:58.475Z,15.32
2023-01-01T03:26:06.716Z,20.52
2023-01-01T03:27:17.478Z,17.98
2023-01-01T03:28:24.203Z,14.10
2023-01-01T03:29:32.552Z,13.43
2023-01-01T03:30:40.269Z,15.52
2023-01-01T03:31:47.781Z,13.85
2023-01-01T03:33:00.695Z,17.63
2023-01-01T03:34:09.276Z,23.77
2023-01-01T03:35:13.891Z,17.33
2023-01-01T03:36:22.761Z,13.15
2023-01-01T03:37:29.153Z,15.48
2023-01-01T03:38:38.677Z,19.15
2023-01-01T03:39:45.237Z,12.88
2023-01-01T03:40:52.853Z,15.15
2023-01-01T03:42:06.774Z,14.55
2023-01-01T03:43:17.165Z,13.18
2023-01-01T03:44:27.231Z,16.08
2023-01-01T03:45:36.219Z,17.67
2023-01-01T03:46:41.657Z,15.93
2023-01-01T03:47:46.514Z,14.10
2023-01-01T03:49:03.275Z,12.02
2023-01-01T03:50:09.899Z,11.73
2023-01-01T03:51:19.268Z,14.43
2023-01-01T03:52:34.005Z,14.15
2023-01-01T03:53:40.904Z,11.93
2023-01-01T03:54:56.718Z,13.07
2023-01-01T03:56:06.770Z,15.20
2023-01-01T03:57:17.230Z,23.40
2023-01-01T03:58:25.145Z,14.00
2023-01-01T03:59:37.585Z,15.73
2023-01-01T04:00:50.243Z,15.40
2023-01-01T04:02:01.226Z,12.93
2023-01-01T04:03:08.832Z,16.38
2023-01-01T04:04:15.147Z,10.57
2023-01-01T04:05:18.994Z,12.18
2023-01-01T04:06:24.122Z,8.82
2023-01-01T04:07:26.459Z,11.32
2023-01-01T04:08:31.078Z,9.10
2023-01-01T04:09:36.422Z,13.48
2023-01-01T04:10:45.758Z,7.43
2023-01-01T04:12:04.543Z,11.55
2023-01-01T04:13:09.756Z,10.68
2023-01-01T04:14:11.721Z,14.80
2023-01-01T04:15:16.619Z,8.38
2023-01-01T04:16:18.758Z,7.25
2023-01-01T04:17:25.914Z,11.60
2023-01-01T04:18:27.849Z,9.75
2023-01-01T04:19:32.377Z,8.90
2023-01-01T04:20:34.349Z,9.63
2023-01-01T04:21:38.837Z,8.30
2023-01-01T04:22:40.932Z,10.75
2023-01-01T04:23:45.444Z,10.80
2023-01-01T04:24:47.451Z,9.13
2023-01-01T04:25:51.956Z,12.00
2023-01-01T04:26:55.556Z,11.57
2023-01-01T04:28:03.440Z,10.60
2023-01-01T04:29:05.581Z,12.38
2023-01-01T04:30:13.037Z,9.13
2023-01-01T04:31:15.000Z,9.85
2023-01-01T04:32:19.664Z,10.18
2023-01-01T04:33:24.170Z,9.43
2023-01-01T04:34:28.717Z,9.02
2023-01-01T04:35:31.012Z,10.88
2023-01-01T04:36:36.341Z,11.82
2023-01-01T04:37:41.285Z,9.32
2023-01-01T04:38:43.227Z,13.40
2023-01-01T04:39:47.819Z,8.13
2023-01-01T04:40:58.036Z,12.18
2023-01-01T04:42:02.585Z,16.17
2023-01-01T04:43:04.540Z,10.38
2023-01-01T04:44:09.079Z,11.27
2023-01-01T04:45:15.230Z,14.45
2023-01-01T04:46:21.367Z,8.85
2023-01-01T04:47:23.338Z,9.57
2023-01-01T04:48:31.252Z,14.43
2023-01-01T04:49:35.765Z,10.90
2023-01-01T04:50:37.686Z,10.88
2023-01-01T04:51:42.224Z,10.77
2023-01-01T04:52:44.122Z,8.52
2023-01-01T04:53:49.034Z,10.65
2023-01-01T04:54:53.566Z,13.18
2023-01-01T04:55:55.435Z,8.55
2023-01-01T04:56:59.938Z,10.02
2023-01-01T04:58:01.844Z,15.05
2023-01-01T04:59:06.385Z,11.65
2023-01-01T05:00:09.779Z,9.90
2023-01-01T05:01:19.394Z,13.02
2023-01-01T05:02:21.480Z,12.60
2023-01-01T05:03:26.102Z,11.82
2023-01-01T05:04:33.187Z,14.35
2023-01-01T05:05:35.112Z,11.73
2023-01-01T05:06:40.568Z,9.85
2023-01-01T05:07:42.461Z,9.43
2023-01-01T05:08:50.022Z,13.25
2023-01-01T05:09:51.984Z,9.60
2023-01-01T05:11:01.873Z,20.95
2023-01-01T05:12:04.108Z,8.27
2023-01-01T05:13:11.824Z,11.60
2023-01-01T05:14:13.776Z,13.25
2023-01-01T05:15:18.336Z,13.60
2023-01-01T05:16:22.696Z,10.13
2023-01-01T05:17:27.277Z,15.35
2023-01-01T05:18:29.196Z,11.05
2023-01-01T05:19:36.295Z,8.45
2023-01-01T05:20:38.215Z,16.67
2023-01-01T05:21:45.190Z,14.00
2023-01-01T05:22:47.435Z,11.32
2023-01-01T05:23:52.445Z,19.35
2023-01-01T05:24:54.747Z,12.60
2023-01-01T05:25:59.426Z,12.80
2023-01-01T05:27:03.924Z,12.30
2023-01-01T05:28:05.865Z,12.60
2023-01-01T05:29:16.031Z,15.68
2023-01-01T05:30:18.983Z,11.65
2023-01-01T05:31:24.939Z,9.80
2023-01-01T05:32:26.853Z,19.35
2023-01-01T05:33:31.338Z,15.80
2023-01-01T05:35:39.109Z,15.23
2023-01-01T05:36:41.097Z,13.93
2023-01-01T05:37:45.559Z,13.32
2023-01-01T05:38:47.991Z,21.80
2023-01-01T05:39:52.475Z,14.90
2023-01-01T05:40:54.451Z,15.85
2023-01-01T05:42:00.111Z,15.57
2023-01-01T05:43:02.008Z,16.95
2023-01-01T05:44:09.170Z,17.98
2023-01-01T05:45:12.321Z,15.20
2023-01-01T05:46:19.789Z,15.38
2023-01-01T05:47:22.482Z,22.60
2023-01-01T05:48:26.987Z,37.65
2023-01-01T05:49:28.950Z,22.98
2023-01-01T05:50:35.988Z,24.02
2023-01-01T05:52:41.587Z,20.95
2023-01-01T05:53:44.676Z,22.95
2023-01-01T05:54:49.225Z,20.60
2023-01-01T05:55:54.315Z,24.45
2023-01-01T05:56:58.836Z,22.98
2023-01-01T05:58:00.756Z,27.02
2023-01-01T05:59:05.350Z,32.42
2023-01-01T06:00:08.739Z,28.35
2023-01-01T06:01:15.919Z,22.80
2023-01-01T06:02:21.066Z,24.27
2023-01-01T06:03:25.874Z,20.67
2023-01-01T06:04:27.865Z,24.98
2023-01-01T06:05:32.421Z,23.65
2023-01-01T06:06:36.955Z,23.35
2023-01-01T06:07:47.993Z,22.50
2023-01-01T06:08:50.981Z,25.73
2023-01-01T06:09:55.492Z,26.05
2023-01-01T06:10:59.317Z,30.55
2023-01-01T06:12:03.858Z,29.55
2023-01-01T06:13:12.830Z,31.00
2023-01-01T06:14:17.861Z,23.58
2023-01-01T06:15:19.760Z,24.80
2023-01-01T06:16:24.919Z,23.48
2023-01-01T06:17:26.899Z,30.90
2023-01-01T06:18:33.175Z,23.48
2023-01-01T06:19:35.112Z,24.40
2023-01-01T06:20:39.588Z,27.25
2023-01-01T06:21:46.696Z,25.17
2023-01-01T06:22:48.662Z,22.67
2023-01-01T06:23:53.717Z,37.67
2023-01-01T06:24:55.618Z,27.23
2023-01-01T06:26:02.007Z,29.73
2023-01-01T06:27:07.128Z,35.38
2023-01-01T06:28:09.235Z,20.42
2023-01-01T06:29:13.737Z,22.75
2023-01-01T06:30:15.777Z,52.22
2023-01-01T06:31:21.991Z,25.58
2023-01-01T06:32:26.592Z,23.60
2023-01-01T06:33:29.515Z,29.98
2023-01-01T06:34:34.076Z,25.30
2023-01-01T06:35:36.477Z,24.38
2023-01-01T06:36:41.280Z,20.80
2023-01-01T06:37:45.775Z,20.92
2023-01-01T06:38:51.896Z,43.88
2023-01-01T06:39:53.807Z,29.52
2023-01-01T06:40:59.587Z,26.13
2023-01-01T06:42:01.473Z,52.58
2023-01-01T06:43:05.960Z,24.77
2023-01-01T06:44:07.868Z,26.60
2023-01-01T06:45:13.430Z,22.85
2023-01-01T06:46:19.539Z,25.00
2023-01-01T06:47:24.097Z,21.00
2023-01-01T06:48:26.046Z,62.55
2023-01-01T06:49:30.535Z,22.08
2023-01-01T06:50:32.443Z,19.63
2023-01-01T06:51:40.572Z,25.98
2023-01-01T06:52:42.531Z,17.25
2023-01-01T06:53:50.408Z,24.05
2023-01-01T06:54:52.405Z,17.08
2023-01-01T06:55:57.570Z,18.85
2023-01-01T06:56:59.602Z,27.30
2023-01-01T06:58:09.271Z,20.33
2023-01-01T06:59:13.802Z,13.68
2023-01-01T07:00:16.485Z,33.70
2023-01-01T07:01:23.472Z,18.98
2023-01-01T07:02:25.594Z,15.35
2023-01-01T07:03:30.295Z,16.38
2023-01-01T07:04:34.821Z,18.60
2023-01-01T07:05:36.802Z,20.13
2023-01-01T07:06:41.919Z,13.30
2023-01-01T07:07:43.848Z,15.77
2023-01-01T07:08:51.261Z,13.52
2023-01-01T07:09:55.756Z,16.13
2023-01-01T07:10:58.058Z,34.40
2023-01-01T07:12:02.698Z,18.20
2023-01-01T07:13:04.769Z,19.02
2023-01-01T07:14:09.257Z,23.42
2023-01-01T07:15:12.150Z,19.38
2023-01-01T07:16:17.609Z,15.25
2023-01-01T07:17:19.615Z,17.05
2023-01-01T07:18:26.061Z,13.15
2023-01-01T07:19:30.620Z,16.88
2023-01-01T07:20:32.556Z,15.82
2023-01-01T07:21:43.667Z,13.00
2023-01-01T07:22:45.601Z,17.73
2023-01-01T07:23:52.694Z,13.27
2023-01-01T07:24:57.309Z,14.15
2023-01-01T07:25:59.351Z,20.70
2023-01-01T07:27:03.829Z,20.33
2023-01-01T07:28:05.731Z,19.38
2023-01-01T07:29:11.277Z,33.10
2023-01-01T07:30:16.049Z,14.43
2023-01-01T07:31:18.012Z,14.70
2023-01-01T07:32:22.550Z,26.42
2023-01-01T07:33:24.585Z,13.57
2023-01-01T07:34:29.113Z,12.25
2023-01-01T07:35:31.024Z,26.92
2023-01-01T07:36:35.639Z,16.58
2023-01-01T07:37:37.988Z,22.58
2023-01-01T07:38:42.684Z,18.58
2023-01-01T07:39:50.003Z,16.35
2023-01-01T07:40:51.909Z,15.27
2023-01-01T07:41:56.405Z,22.02
2023-01-01T07:42:58.802Z,19.70
2023-01-01T07:44:03.515Z,15.90
2023-01-01T07:45:06.637Z,21.33
2023-01-01T07:46:13.648Z,19.75
2023-01-01T07:47:21.330Z,12.13
2023-01-01T07:48:25.824Z,16.70
2023-01-01T07:49:27.722Z,13.50
2023-01-01T07:50:34.368Z,17.25
2023-01-01T07:51:39.150Z,15.32
2023-01-01T07:52:41.039Z,15.90
2023-01-01T07:53:45.544Z,13.45
2023-01-01T07:54:52.712Z,13.52
2023-01-01T07:55:54.769Z,11.75
2023-01-01T07:56:59.336Z,18.63
2023-01-01T07:58:02.107Z,15.05
2023-01-01T07:59:06.951Z,16.27
2023-01-01T08:00:10.647Z,23.67
2023-01-01T08:01:16.443Z,14.68
2023-01-01T08:02:18.480Z,11.45
2023-01-01T08:03:23.185Z,12.18
2023-01-01T08:04:28.051Z,15.05
2023-01-01T08:05:30.117Z,15.85
2023-01-01T08:06:34.643Z,12.23
2023-01-01T08:07:36.664Z,16.42
2023-01-01T08:08:41.351Z,12.70
2023-01-01T08:09:45.865Z,14.57
2023-01-01T08:10:50.342Z,8.57
2023-01-01T08:11:54.844Z,12.98
2023-01-01T08:13:00.487Z,13.55
2023-01-01T08:14:05.229Z,20.55
2023-01-01T08:15:08.867Z,18.73
2023-01-01T08:16:13.421Z,16.95
2023-01-01T08:17:15.431Z,10.50
2023-01-01T08:18:19.982Z,10.52
2023-01-01T08:19:24.492Z,16.02
2023-01-01T08:20:26.873Z,19.77
2023-01-01T08:21:31.480Z,10.00
2023-01-01T08:22:33.838Z,13.43
2023-01-01T08:23:38.447Z,10.18
2023-01-01T08:24:40.383Z,27.88
2023-01-01T08:26:05.197Z,31.70
2023-01-01T08:27:08.440Z,21.88
2023-01-01T08:28:28.859Z,25.08
2023-01-01T08:29:33.382Z,18.27
2023-01-01T08:30:37.892Z,24.10
2023-01-01T08:31:39.891Z,28.40
2023-01-01T08:32:44.776Z,16.27
2023-01-01T08:33:49.294Z,10.38
2023-01-01T08:34:51.165Z,16.98
2023-01-01T08:35:55.823Z,16.88
2023-01-01T08:37:00.344Z,23.98
2023-01-01T08:38:02.275Z,15.93
2023-01-01T08:39:06.841Z,27.40
2023-01-01T08:40:11.947Z,14.63
2023-01-01T08:41:19.134Z,21.98
2023-01-01T08:42:21.051Z,16.23
2023-01-01T08:43:25.562Z,11.35
2023-01-01T08:44:27.475Z,9.25
2023-01-01T08:45:32.033Z,14.63
2023-01-01T08:46:33.980Z,11.55
2023-01-01T08:47:38.492Z,15.80
2023-01-01T08:48:42.959Z,12.88
2023-01-01T08:49:47.617Z,9.80
2023-01-01T08:50:55.951Z,13.30
2023-01-01T08:51:57.838Z,15.05
2023-01-01T08:53:02.561Z,19.73
2023-01-01T08:54:07.673Z,14.55
2023-01-01T08:55:10.466Z,15.57
2023-01-01T08:56:16.027Z,14.02
2023-01-01T08:57:20.639Z,12.20
2023-01-01T08:58:25.164Z,17.70
2023-01-01T08:59:29.685Z,27.23
2023-01-01T09:00:31.613Z,24.85
2023-01-01T09:01:36.239Z,34.13
2023-01-01T09:02:38.407Z,70.45
2023-01-01T09:03:43.032Z,70.03
2023-01-01T09:04:44.936Z,55.63
2023-01-01T09:05:49.549Z,120.95
2023-01-01T09:06:54.194Z,69.50
2023-01-01T09:07:58.705Z,82.35
2023-01-01T09:09:00.615Z,107.97
2023-01-01T09:10:05.182Z,97.85
2023-01-01T09:11:07.135Z,125.38
2023-01-01T09:12:17.670Z,115.72
2023-01-01T09:13:24.968Z,49.40
2023-01-01T09:14:29.451Z,118.07
2023-01-01T09:15:31.703Z,84.25
2023-01-01T09:16:41.916Z,67.35
2023-01-01T09:17:48.664Z,138.60
2023-01-01T09:18:53.580Z,66.78
2023-01-01T09:19:58.045Z,27.92
2023-01-01T09:21:02.566Z,138.40
2023-01-01T09:22:07.084Z,138.68
2023-01-01T09:23:10.553Z,120.57
2023-01-01T09:24:15.039Z,107.22
2023-01-01T09:25:19.640Z,40.70
2023-01-01T09:26:21.531Z,36.63
2023-01-01T09:27:26.168Z,81.50
2023-01-01T09:28:33.564Z,38.83
2023-01-01T09:29:38.044Z,64.03
2023-01-01T09:30:40.045Z,61.42
2023-01-01T09:31:44.549Z,50.75
2023-01-01T09:32:49.434Z,45.72
2023-01-01T09:33:54.201Z,58.38
2023-01-01T09:35:00.841Z,80.25
2023-01-01T09:36:16.469Z,106.63
2023-01-01T09:37:20.938Z,78.63
2023-01-01T09:38:25.424Z,44.78
2023-01-01T09:39:30.375Z,29.98
2023-01-01T09:40:51.366Z,42.53
2023-01-01T09:42:10.422Z,58.55
2023-01-01T09:43:27.860Z,81.93
2023-01-01T09:44:55.710Z,56.05
2023-01-01T09:46:03.087Z,127.20
2023-01-01T09:47:16.517Z,129.77
2023-01-01T09:48:21.333Z,77.53
2023-01-01T09:49:34.531Z,93.93
2023-01-01T09:50:43.648Z,32.00
2023-01-01T09:51:58.174Z,43.97
2023-01-01T09:55:00.168Z,58.72
2023-01-01T09:56:03.599Z,68.20
2023-01-01T09:57:16.310Z,69.32
2023-01-01T09:58:26.726Z,82.97
2023-01-01T09:59:32.157Z,48.70
2023-01-01T10:00:42.683Z,57.70
2023-01-01T10:01:52.000Z,51.92
2023-01-01T10:03:15.942Z,51.10
2023-01-01T10:04:29.234Z,53.25
2023-01-01T10:05:40.685Z,44.67
2023-01-01T10:06:49.403Z,65.45
2023-01-01T10:08:00.645Z,62.00
2023-01-01T10:09:16.736Z,71.45
2023-01-01T10:10:33.672Z,42.78
2023-01-01T10:11:49.100Z,58.28
2023-01-01T10:13:03.254Z,34.78
2023-01-01T10:14:18.988Z,70.80
2023-01-01T10:15:28.831Z,38.40
2023-01-01T10:16:40.083Z,50.95
2023-01-01T10:17:48.127Z,52.40
2023-01-01T10:18:57.654Z,39.85
2023-01-01T10:20:08.437Z,54.25
2023-01-01T10:21:17.991Z,57.40
2023-01-01T10:22:25.937Z,22.48
2023-01-01T10:23:36.619Z,35.97
2023-01-01T10:24:48.458Z,41.53
2023-01-01T10:25:50.448Z,96.65
2023-01-01T10:26:57.569Z,64.00
2023-01-01T10:28:04.763Z,75.40
2023-01-01T10:29:17.741Z,129.00
2023-01-01T10:30:24.481Z,63.22
2023-01-01T10:31:31.929Z,47.75
2023-01-01T10:32:41.049Z,71.25
2023-01-01T10:33:45.999Z,33.40
2023-01-01T10:34:51.939Z,37.78
2023-01-01T10:35:58.800Z,30.95
2023-01-01T10:37:02.814Z,73.88
2023-01-01T10:38:08.252Z,83.78
2023-01-01T10:39:18.641Z,68.57
2023-01-01T10:40:22.915Z,50.65
2023-01-01T10:41:27.527Z,85.40
2023-01-01T10:42:29.419Z,72.05
2023-01-01T10:43:33.932Z,62.08
2023-01-01T10:44:38.929Z,61.35
2023-01-01T10:45:45.218Z,56.50
2023-01-01T10:46:55.054Z,70.75
2023-01-01T10:48:33.252Z,50.58
2023-01-01T10:49:35.154Z,42.55
2023-01-01T10:50:46.037Z,52.35
2023-01-01T10:51:52.509Z,71.57
2023-01-01T10:52:56.749Z,54.60
2023-01-01T10:54:01.726Z,61.00
2023-01-01T10:55:04.178Z,75.80
2023-01-01T10:56:12.771Z,93.40
2023-01-01T10:57:21.084Z,88.07
2023-01-01T10:58:29.939Z,9.80
2023-01-01T10:59:40.063Z,14.65
2023-01-01T11:00:44.558Z,14.02
2023-01-01T11:01:49.344Z,11.05
2023-01-01T11:03:16.845Z,9.00
2023-01-01T11:04:24.805Z,12.13
2023-01-01T11:05:26.768Z,9.35
2023-01-01T11:06:35.553Z,21.17
2023-01-01T11:07:37.949Z,13.63
2023-01-01T11:08:49.610Z,14.23
2023-01-01T11:11:08.933Z,12.60
2023-01-01T11:12:54.627Z,14.85
2023-01-01T11:13:46.480Z,7.55
2023-01-01T11:14:56.149Z,5.18
2023-01-01T11:16:01.601Z,10.38
2023-01-01T11:17:04.403Z,15.73
2023-01-01T11:18:10.826Z,14.30
2023-01-01T11:19:23.689Z,15.45
2023-01-01T11:20:30.999Z,9.48
2023-01-01T11:21:37.290Z,15.48
2023-01-01T11:22:42.261Z,72.55
2023-01-01T11:23:46.822Z,52.05
2023-01-01T11:25:03.304Z,93.35
2023-01-01T11:26:10.048Z,114.35
2023-01-01T11:27:18.329Z,121.72
2023-01-01T11:28:23.967Z,74.78
2023-01-01T11:29:30.593Z,63.72
2023-01-01T11:30:35.150Z,103.13
2023-01-01T11:31:42.606Z,57.63
2023-01-01T11:32:45.180Z,73.35
2023-01-01T11:33:55.579Z,57.88
2023-01-01T11:35:03.029Z,57.28
2023-01-01T11:36:11.282Z,13.75
2023-01-01T11:37:24.953Z,90.60
2023-01-01T11:38:30.575Z,40.80
2023-01-01T11:39:37.508Z,39.90
2023-01-01T11:40:46.509Z,101.63
2023-01-01T11:41:52.936Z,37.42
2023-01-01T11:43:01.134Z,53.55
2023-01-01T11:44:03.066Z,68.28
2023-01-01T11:45:22.680Z,70.78
2023-01-01T11:46:27.832Z,21.92
2023-01-01T11:47:35.987Z,57.08
2023-01-01T11:48:45.094Z,178.68
2023-01-01T11:49:56.424Z,29.77
2023-01-01T11:51:03.978Z,39.25
2023-01-01T11:52:31.590Z,82.40
2023-01-01T11:53:37.977Z,43.13
2023-01-01T11:54:44.524Z,66.70
2023-01-01T11:55:52.888Z,34.13
2023-01-01T11:57:02.197Z,48.90
2023-01-01T11:58:19.845Z,72.85
2023-01-01T11:59:30.613Z,46.85
2023-01-01T12:00:39.344Z,33.30
2023-01-01T12:01:45.161Z,47.47
2023-01-01T12:02:55.589Z,75.88
2023-01-01T12:04:05.715Z,56.17
2023-01-01T12:05:17.114Z,87.07
2023-01-01T12:06:27.853Z,58.75
2023-01-01T12:07:39.056Z,65.17
2023-01-01T12:08:49.897Z,46.60
2023-01-01T12:09:58.143Z,38.45
2023-01-01T12:11:11.873Z,38.60
2023-01-01T12:12:24.678Z,238.57
2023-01-01T12:13:33.112Z,44.30
2023-01-01T12:14:43.197Z,32.83
2023-01-01T12:15:56.555Z,49.20
2023-01-01T12:17:01.923Z,32.08
2023-01-01T12:18:16.057Z,64.18
2023-01-01T12:19:24.999Z,44.47
2023-01-01T12:20:32.806Z,75.88
2023-01-01T12:21:39.174Z,46.72
2023-01-01T12:22:46.300Z,66.38
2023-01-01T12:23:50.845Z,102.70
2023-01-01T12:24:56.487Z,59.38
2023-01-01T12:26:06.189Z,75.05
2023-01-01T12:27:20.930Z,84.15
2023-01-01T12:28:36.343Z,54.72
2023-01-01T12:29:51.225Z,53.22
2023-01-01T12:31:06.165Z,39.03
2023-01-01T12:32:15.505Z,77.13
2023-01-01T12:33:34.394Z,50.10
2023-01-01T12:34:44.743Z,48.35
2023-01-01T12:35:57.968Z,68.95
2023-01-01T12:37:13.512Z,54.35
2023-01-01T12:38:36.339Z,76.25
2023-01-01T12:40:17.049Z,63.70
2023-01-01T12:41:33.467Z,59.40
2023-01-01T12:42:52.525Z,54.25
2023-01-01T12:44:05.914Z,52.10
2023-01-01T12:45:32.686Z,74.40
2023-01-01T12:46:50.932Z,36.63
2023-01-01T12:48:01.269Z,79.88
2023-01-01T12:49:29.802Z,149.82
2023-01-01T12:50:47.895Z,91.22
2023-01-01T12:52:09.028Z,84.57
2023-01-01T12:53:28.429Z,124.75
2023-01-01T12:54:57.678Z,68.18
2023-01-01T12:56:15.089Z,48.30
2023-01-01T12:57:32.207Z,70.05
2023-01-01T12:58:38.794Z,140.50
2023-01-01T12:59:48.537Z,80.50
2023-01-01T13:00:56.310Z,42.38
2023-01-01T13:02:04.770Z,51.58
2023-01-01T13:03:12.054Z,103.63
2023-01-01T13:04:22.011Z,143.10
2023-01-01T13:05:36.901Z,35.45
2023-01-01T13:06:45.617Z,115.60
2023-01-01T13:07:51.394Z,73.03
2023-01-01T13:09:05.243Z,80.78
2023-01-01T13:10:22.292Z,113.82
2023-01-01T13:11:29.609Z,41.22
2023-01-01T13:12:34.635Z,82.93
2023-01-01T13:13:39.343Z,151.98
2023-01-01T13:14:45.988Z,107.18
2023-01-01T13:15:51.671Z,196.15
2023-01-01T13:16:57.945Z,150.55
2023-01-01T13:18:00.638Z,69.88
2023-01-01T13:19:05.487Z,188.55
2023-01-01T13:20:20.773Z,130.95
2023-01-01T13:21:25.873Z,81.97
2023-01-01T13:22:44.399Z,75.93
2023-01-01T13:23:48.715Z,69.28
2023-01-01T13:25:09.220Z,98.18
2023-01-01T13:26:39.664Z,94.45
2023-01-01T13:28:06.389Z,56.08
2023-01-01T13:29:25.850Z,141.45
2023-01-01T13:30:48.677Z,52.38
2023-01-01T13:32:10.742Z,31.33
2023-01-01T13:33:26.044Z,59.58
2023-01-01T13:34:46.308Z,36.25
2023-01-01T13:35:48.322Z,68.70
2023-01-01T13:36:52.860Z,29.33
2023-01-01T13:37:57.525Z,42.85
2023-01-01T13:39:00.094Z,76.25
2023-01-01T13:40:06.805Z,104.35
2023-01-01T13:41:32.354Z,77.30
2023-01-01T13:42:52.425Z,58.83
2023-01-01T13:44:21.250Z,34.17
2023-01-01T13:47:12.051Z,99.28
2023-01-01T13:48:45.073Z,61.75
2023-01-01T13:50:07.252Z,57.78
2023-01-01T13:52:04.332Z,107.68
2023-01-01T13:53:13.034Z,54.42
2023-01-01T13:54:41.736Z,85.88
2023-01-01T13:56:03.467Z,31.63
2023-01-01T13:57:30.268Z,68.57
2023-01-01T13:59:18.805Z,34.38
2023-01-01T14:00:25.799Z,192.85
2023-01-01T14:02:12.386Z,109.82
2023-01-01T14:03:19.790Z,101.82
2023-01-01T14:04:35.582Z,123.75
2023-01-01T14:05:44.232Z,118.25
2023-01-01T14:06:50.523Z,137.73
2023-01-01T14:07:57.446Z,235.38
2023-01-01T14:09:08.989Z,109.75
2023-01-01T14:10:23.233Z,153.02
2023-01-01T14:11:29.342Z,59.90
2023-01-01T14:12:41.353Z,105.07
2023-01-01T14:13:45.899Z,56.17
2023-01-01T14:14:50.935Z,27.83
2023-01-01T14:15:55.472Z,31.52
2023-01-01T14:17:02.144Z,51.88
2023-01-01T14:18:13.840Z,57.08
2023-01-01T14:19:18.442Z,55.03
2023-01-01T14:20:24.331Z,26.92
2023-01-01T14:21:33.029Z,30.83
2023-01-01T14:22:37.568Z,63.67
2023-01-01T14:23:44.849Z,54.97
2023-01-01T14:24:48.331Z,86.68
2023-01-01T14:25:53.447Z,106.32
2023-01-01T14:26:59.363Z,61.22
2023-01-01T14:28:08.003Z,59.50
2023-01-01T14:29:17.316Z,142.98
2023-01-01T14:30:22.268Z,122.85
2023-01-01T14:31:30.880Z,36.85
2023-01-01T14:32:35.689Z,59.92
2023-01-01T14:33:38.407Z,35.42
2023-01-01T14:34:44.477Z,40.80
2023-01-01T14:35:55.333Z,33.28
2023-01-01T14:37:01.558Z,38.17
2023-01-01T14:38:25.560Z,38.47